createdAt,value
2019-03-30T00:03:20.189Z,29.07
2019-03-30T00:08:26.182Z,27.87
2019-03-30T00:13:32.549Z,27.07
2019-03-30T00:18:41.304Z,28.20
2019-03-30T00:23:46.595Z,29.70
2019-03-30T00:28:52.630Z,26.15
2019-03-30T00:33:58.861Z,28.00
2019-03-30T00:39:06.010Z,27.47
2019-03-30T00:44:11.965Z,27.80
2019-03-30T00:54:31.429Z,29.50
2019-03-30T00:59:37.415Z,30.83
2019-03-30T01:04:43.489Z,30.75
2019-03-30T01:09:49.551Z,31.10
2019-03-30T01:14:55.897Z,33.13
2019-03-30T01:20:03.397Z,31.33
2019-03-30T01:25:13.205Z,32.17
2019-03-30T01:30:23.197Z,36.43
2019-03-30T01:35:27.327Z,34.47
2019-03-30T01:40:33.498Z,33.93
2019-03-30T01:45:39.661Z,31.57
2019-03-30T01:50:45.729Z,33.17
2019-03-30T01:55:51.826Z,33.53
2019-03-30T02:00:57.755Z,36.83
2019-03-30T02:06:03.750Z,34.63
2019-03-30T02:11:09.765Z,33.17
2019-03-30T02:16:15.894Z,33.73
2019-03-30T02:21:22.009Z,32.13
2019-03-30T02:26:28.112Z,34.17
2019-03-30T02:31:34.171Z,33.07
2019-03-30T02:36:40.226Z,33.40
2019-03-30T02:41:46.241Z,30.73
2019-03-30T02:46:52.205Z,31.17
2019-03-30T02:51:58.529Z,32.27
2019-03-30T02:57:04.721Z,31.03
2019-03-30T03:02:11.052Z,30.53
2019-03-30T03:07:17.055Z,30.40
2019-03-30T03:12:23.004Z,30.73
2019-03-30T03:17:29.144Z,31.07
2019-03-30T03:22:35.294Z,31.40
2019-03-30T03:27:41.243Z,31.50
2019-03-30T03:32:47.197Z,31.48
2019-03-30T03:37:53.225Z,29.27
2019-03-30T03:42:59.257Z,30.10
2019-03-30T03:48:05.617Z,30.60
2019-03-30T03:53:13.529Z,30.60
2019-03-30T03:58:21.127Z,29.63
2019-03-30T04:03:29.907Z,31.07
2019-03-30T04:08:36.671Z,33.20
2019-03-30T04:13:43.967Z,31.10
2019-03-30T04:18:50.079Z,30.15
2019-03-30T04:23:56.251Z,31.27
2019-03-30T04:29:02.365Z,31.40
2019-03-30T04:34:08.277Z,30.23
2019-03-30T04:39:14.375Z,29.30
2019-03-30T04:44:20.486Z,30.80
2019-03-30T04:49:26.817Z,31.87
2019-03-30T04:54:32.819Z,32.90
2019-03-30T04:59:39.599Z,31.48
2019-03-30T05:04:45.627Z,31.00
2019-03-30T05:09:51.614Z,33.15
2019-03-30T05:14:58.009Z,31.70
2019-03-30T05:20:04.150Z,32.57
2019-03-30T05:25:10.320Z,34.93
2019-03-30T05:30:17.161Z,35.63
2019-03-30T05:35:23.162Z,36.33
2019-03-30T05:40:29.134Z,36.07
2019-03-30T05:45:35.165Z,35.23
2019-03-30T05:50:41.200Z,37.50
2019-03-30T05:55:47.245Z,35.30
2019-03-30T06:00:53.304Z,35.83
2019-03-30T06:05:59.320Z,35.57
2019-03-30T06:11:05.783Z,36.13
2019-03-30T06:16:11.825Z,33.57
2019-03-30T06:21:17.850Z,35.90
2019-03-30T06:26:23.810Z,34.60
2019-03-30T06:31:30.162Z,35.52
2019-03-30T06:36:36.350Z,37.07
2019-03-30T06:41:42.492Z,36.40
2019-03-30T06:46:48.669Z,36.40
2019-03-30T06:51:54.689Z,36.57
2019-03-30T06:57:01.030Z,34.00
2019-03-30T07:02:08.570Z,33.23
2019-03-30T07:07:16.070Z,32.93
2019-03-30T07:12:25.130Z,30.93
2019-03-30T07:17:32.654Z,29.03
2019-03-30T07:22:39.773Z,27.65
2019-03-30T07:27:45.901Z,23.77
2019-03-30T07:32:52.097Z,22.58
2019-03-30T07:37:58.540Z,23.30
2019-03-30T07:43:05.063Z,20.73
2019-03-30T07:48:11.670Z,21.23
2019-03-30T07:53:26.255Z,22.80
2019-03-30T07:58:25.563Z,22.33
2019-03-30T08:03:31.855Z,20.87
2019-03-30T08:08:38.591Z,22.47
2019-03-30T08:13:44.629Z,22.73
2019-03-30T08:18:50.653Z,20.40
2019-03-30T08:23:56.789Z,23.13
2019-03-30T08:29:03.457Z,22.33
2019-03-30T08:34:09.649Z,22.10
2019-03-30T08:39:16.070Z,22.27
2019-03-30T08:44:22.029Z,22.40
2019-03-30T08:49:28.510Z,22.10
2019-03-30T08:54:34.629Z,20.80
2019-03-30T08:59:40.814Z,20.43
2019-03-30T09:04:46.855Z,20.73
2019-03-30T09:09:53.322Z,20.30
2019-03-30T09:14:59.571Z,23.00
2019-03-30T09:20:06.809Z,25.43
2019-03-30T09:25:13.122Z,23.70
2019-03-30T09:30:19.549Z,24.87
2019-03-30T09:35:25.702Z,26.87
2019-03-30T09:40:31.849Z,24.77
2019-03-30T09:45:37.869Z,26.03
2019-03-30T09:50:44.009Z,27.33
2019-03-30T09:55:52.530Z,26.23
2019-03-30T10:00:58.633Z,24.97
2019-03-30T10:06:06.870Z,29.23
2019-03-30T10:11:13.282Z,26.70
2019-03-30T10:16:19.382Z,28.37
2019-03-30T10:21:25.669Z,30.47
2019-03-30T10:26:31.832Z,28.40
2019-03-30T10:31:38.105Z,27.87
2019-03-30T10:36:44.349Z,26.40
2019-03-30T10:41:50.862Z,27.20
2019-03-30T10:46:57.288Z,27.20
2019-03-30T10:52:04.709Z,26.67
2019-03-30T10:57:10.990Z,27.23
2019-03-30T11:02:17.089Z,29.07
2019-03-30T11:07:23.329Z,26.13
2019-03-30T11:12:29.574Z,30.70
2019-03-30T11:17:36.290Z,27.90
2019-03-30T11:22:42.710Z,27.73
2019-03-30T11:27:48.749Z,28.20
2019-03-30T11:32:55.190Z,26.37
2019-03-30T11:38:01.333Z,26.07
2019-03-30T11:43:07.384Z,27.30
2019-03-30T11:48:13.530Z,25.27
2019-03-30T11:53:19.600Z,24.63
2019-03-30T11:58:25.976Z,23.77
2019-03-30T12:03:32.395Z,26.37
2019-03-30T12:08:38.383Z,27.43
2019-03-30T12:13:45.444Z,24.72
2019-03-30T12:18:51.725Z,24.17
2019-03-30T12:23:57.743Z,24.23
2019-03-30T12:29:03.728Z,26.00
2019-03-30T12:34:12.863Z,24.60
2019-03-30T12:39:17.935Z,23.23
2019-03-30T12:44:24.013Z,24.30
2019-03-30T12:49:30.060Z,26.43
2019-03-30T12:54:36.466Z,26.33
2019-03-30T12:59:42.920Z,24.13
2019-03-30T13:04:49.044Z,24.23
2019-03-30T13:09:55.485Z,22.93
2019-03-30T13:15:01.998Z,23.40
2019-03-30T13:20:09.172Z,23.60
2019-03-30T13:25:15.173Z,21.93
2019-03-30T13:30:21.765Z,22.83
2019-03-30T13:35:27.815Z,22.70
2019-03-30T13:40:33.764Z,22.93
2019-03-30T13:45:40.710Z,24.57
2019-03-30T13:50:46.725Z,23.40
2019-03-30T13:55:52.921Z,23.47
2019-03-30T14:00:59.067Z,23.87
2019-03-30T14:06:05.193Z,24.10
2019-03-30T14:11:11.144Z,24.47
2019-03-30T14:16:17.247Z,24.07
2019-03-30T14:21:23.673Z,23.80
2019-03-30T14:26:31.685Z,22.33
2019-03-30T14:31:37.805Z,24.77
2019-03-30T14:36:43.956Z,23.13
2019-03-30T14:41:50.405Z,25.00
2019-03-30T14:46:56.549Z,23.92
2019-03-30T14:52:02.625Z,23.93
2019-03-30T14:57:11.629Z,24.30
2019-03-30T15:02:17.685Z,25.77
2019-03-30T15:07:23.678Z,25.20
2019-03-30T15:12:30.101Z,24.80
2019-03-30T15:17:36.434Z,26.40
2019-03-30T15:22:42.470Z,25.23
2019-03-30T15:27:48.439Z,26.12
2019-03-30T15:32:57.069Z,26.40
2019-03-30T15:38:03.045Z,26.23
2019-03-30T15:43:09.324Z,25.90
2019-03-30T15:48:16.195Z,26.20
2019-03-30T15:53:22.205Z,26.60
2019-03-30T15:58:28.229Z,27.63
2019-03-30T16:03:34.254Z,26.67
2019-03-30T16:08:40.935Z,27.45
2019-03-30T16:13:47.229Z,27.77
2019-03-30T16:18:55.852Z,27.30
2019-03-30T16:24:02.178Z,27.07
2019-03-30T16:29:08.394Z,28.60
2019-03-30T16:34:15.813Z,27.67
2019-03-30T16:39:22.062Z,24.80
2019-03-30T16:44:28.141Z,26.33
2019-03-30T16:49:34.110Z,26.40
2019-03-30T16:54:40.513Z,26.10
2019-03-30T16:59:46.515Z,25.62
2019-03-30T17:04:56.156Z,25.73
2019-03-30T17:10:03.482Z,24.63
2019-03-30T17:15:09.721Z,24.17
2019-03-30T17:20:16.120Z,23.03
2019-03-30T17:25:23.961Z,22.77
2019-03-30T17:30:30.081Z,21.40
2019-03-30T17:35:36.197Z,21.77
2019-03-30T17:40:42.301Z,21.00
2019-03-30T17:45:50.119Z,20.83
2019-03-30T17:50:58.194Z,17.97
2019-03-30T17:56:04.041Z,15.63
2019-03-30T18:01:15.585Z,14.43
2019-03-30T18:06:19.200Z,12.13
2019-03-30T18:11:25.320Z,12.43
2019-03-30T18:16:31.578Z,12.20
2019-03-30T18:21:38.025Z,12.63
2019-03-30T18:26:44.161Z,11.43
2019-03-30T18:31:50.340Z,11.17
2019-03-30T18:36:57.739Z,10.48
2019-03-30T18:42:03.921Z,10.43
2019-03-30T18:47:10.020Z,10.33
2019-03-30T18:52:16.999Z,9.53
2019-03-30T18:57:23.169Z,9.23
2019-03-30T19:02:29.542Z,9.30
2019-03-30T19:07:36.081Z,9.47
2019-03-30T19:12:42.640Z,9.10
2019-03-30T19:17:48.997Z,8.53
2019-03-30T19:22:54.942Z,8.90
2019-03-30T19:28:01.163Z,9.10
2019-03-30T19:33:07.344Z,9.70
2019-03-30T19:38:13.503Z,9.23
2019-03-30T19:43:19.670Z,8.90
2019-03-30T19:48:25.799Z,12.43
2019-03-30T19:53:32.160Z,13.83
2019-03-30T19:58:38.541Z,13.63
2019-03-30T20:03:44.555Z,24.67
2019-03-30T20:08:50.660Z,16.23
2019-03-30T20:13:57.023Z,12.28
2019-03-30T20:19:12.082Z,26.77
2019-03-30T20:24:11.661Z,9.23
2019-03-30T20:29:25.180Z,9.27
2019-03-30T20:34:26.012Z,10.90
2019-03-30T20:39:32.190Z,52.53
2019-03-30T20:44:38.501Z,50.87
2019-03-30T20:49:47.957Z,22.50
2019-03-30T20:54:54.221Z,18.13
2019-03-30T21:00:00.375Z,16.67
2019-03-30T21:05:09.079Z,20.47
2019-03-30T21:10:15.670Z,10.80
2019-03-30T21:15:24.793Z,12.07
2019-03-30T21:20:30.839Z,10.20
2019-03-30T21:25:37.100Z,10.73
2019-03-30T21:30:43.497Z,10.97
2019-03-30T21:35:50.120Z,11.70
2019-03-30T21:40:56.660Z,11.63
2019-03-30T21:46:03.059Z,11.63
2019-03-30T21:51:09.080Z,25.23
2019-03-30T21:56:15.890Z,12.37
2019-03-30T22:01:22.240Z,12.07
2019-03-30T22:06:28.760Z,12.10
2019-03-30T22:11:35.304Z,11.57
2019-03-30T22:16:41.749Z,17.70
2019-03-30T22:21:47.860Z,68.42
2019-03-30T22:26:54.419Z,17.77
2019-03-30T22:32:00.620Z,12.77
2019-03-30T22:37:08.276Z,15.23
2019-03-30T22:42:14.341Z,14.23
2019-03-30T22:47:20.620Z,22.17
2019-03-30T22:52:26.630Z,19.83
2019-03-30T22:57:36.429Z,19.80
2019-03-30T23:02:42.992Z,17.43
2019-03-30T23:07:49.519Z,26.62
2019-03-30T23:12:55.619Z,15.83
2019-03-30T23:18:01.681Z,16.83
2019-03-30T23:23:07.918Z,16.00
2019-03-30T23:28:14.161Z,16.27
2019-03-30T23:33:20.185Z,18.13
2019-03-30T23:38:27.790Z,17.73
2019-03-30T23:43:33.955Z,17.00
2019-03-30T23:48:40.238Z,17.63
2019-03-30T23:53:46.459Z,17.67
2019-03-30T23:58:52.911Z,17.20
